Sharon, North Dakota
Current Conditions -  °F | °C
As of 8:58 PM on Tuesday 21 Oct 2014 (Local Time) from KRDR Reporting Station
Clear Clear  
Wind Chill: 56°   Ceiling: Unl
Heat Index: 56°   Visibility: 10mi
Dew Point: 42°   Wind: 20mph
Humidity: 59%   Direction: 160°SSE
Pressure: 29.84"   Gusts: 30mph
Location:  47.6°N, 97.89°W
Report Text: KRDR 220158Z AUTO 16017G26KT 10SM CLR 14/06 A2984 RMK AO2 PK WND 17028/25 SLP114 T01360058
Loading
Personal Weather Stations






























Interactive Weather Map
Tropical Storm Tracking
New forecast layout! Learn more

10-Day Weather Forecast

Advertisements
Track Severe Weather on mobile